Time;durP1;ratioP1;P1;durP2;ratioP2;P2;SDS_P1;SDS_P2;PMS_P1;PMS_P2;Temp;Humidity;BMP_temperature;BMP_pressure;BME280_temperature;BME280_humidity;BME280_pressure;Samples;Min_cycle;Max_cycle;Signal;HPM_P1;HPM_P2
2023/06/16 00:04:17;;;;;;;2.22;1.73;;;24.70;78.20;;;;;;10978948;32;20054;-72
2023/06/16 00:10:19;;;;;;;2.15;1.58;;;24.70;78.20;;;;;;10978646;32;20045;-73
2023/06/16 00:16:22;;;;;;;2.90;1.65;;;24.60;78.80;;;;;;10978461;32;20023;-73
2023/06/16 00:22:28;;;;;;;4.25;1.80;;;24.60;79.20;;;;;;10976698;32;20341;-73
2023/06/16 00:28:30;;;;;;;2.72;1.65;;;24.50;79.70;;;;;;10978324;32;20041;-73
2023/06/16 00:34:32;;;;;;;4.43;2.12;;;24.60;79.60;;;;;;10964430;32;20065;-73
2023/06/16 00:40:34;;;;;;;3.67;1.83;;;24.60;79.60;;;;;;10981971;32;20023;-73
2023/06/16 00:46:37;;;;;;;4.47;1.98;;;24.50;79.00;;;;;;10971477;32;20027;-73
2023/06/16 00:52:39;;;;;;;6.43;2.30;;;24.50;78.80;;;;;;10984637;32;20014;-74
2023/06/16 00:58:42;;;;;;;4.80;2.80;;;24.50;78.70;;;;;;10982560;32;20060;-73
2023/06/16 01:04:47;;;;;;;3.33;2.37;;;24.50;78.70;;;;;;10984071;32;20027;-73
2023/06/16 01:11:01;;;;;;;2.70;1.75;;;24.30;78.70;;;;;;10983848;32;20022;-73
2023/06/16 01:17:05;;;;;;;3.28;1.75;;;24.30;78.80;;;;;;10969676;32;20034;-73
2023/06/16 01:23:29;;;;;;;3.28;1.50;;;24.00;79.00;;;;;;10983473;32;20044;-73
2023/06/16 01:29:36;;;;;;;5.47;2.25;;;23.80;79.00;;;;;;10983165;32;20306;-73
2023/06/16 01:35:40;;;;;;;3.37;2.20;;;23.60;78.90;;;;;;10983025;32;20027;-73
2023/06/16 01:41:44;;;;;;;4.62;2.47;;;23.30;78.50;;;;;;10968625;32;20320;-74
2023/06/16 01:47:46;;;;;;;4.43;2.95;;;23.30;78.80;;;;;;10982705;32;20058;-73
2023/06/16 01:53:50;;;;;;;2.65;1.77;;;23.30;78.70;;;;;;10982067;32;20027;-74
2023/06/16 02:00:01;;;;;;;3.83;2.17;;;23.30;78.70;;;;;;10982112;32;20053;-74
2023/06/16 02:06:08;;;;;;;3.67;2.67;;;23.30;78.80;;;;;;10967801;32;20030;-73
2023/06/16 02:12:12;;;;;;;3.55;2.33;;;23.20;78.90;;;;;;10981737;32;20045;-73
2023/06/16 02:18:15;;;;;;;2.03;1.67;;;23.40;78.80;;;;;;10967571;32;20314;-73
2023/06/16 02:24:17;;;;;;;6.82;2.95;;;23.50;78.60;;;;;;10981117;32;20467;-73
2023/06/16 02:30:19;;;;;;;4.85;2.53;;;23.40;78.60;;;;;;10980827;32;20022;-73
2023/06/16 02:36:21;;;;;;;2.80;1.92;;;23.40;78.70;;;;;;10980711;32;20056;-73
2023/06/16 02:42:23;;;;;;;3.25;2.47;;;23.50;78.80;;;;;;10980743;32;20397;-73
2023/06/16 02:48:25;;;;;;;4.32;2.83;;;23.50;78.80;;;;;;10976437;32;20417;-73
2023/06/16 02:54:29;;;;;;;3.92;2.58;;;23.40;79.20;;;;;;10979920;32;20022;-73
2023/06/16 03:00:31;;;;;;;6.05;3.50;;;23.50;79.00;;;;;;10979759;32;20014;-73
2023/06/16 03:06:35;;;;;;;3.78;2.70;;;23.50;78.80;;;;;;10979953;32;20015;-73
2023/06/16 03:12:38;;;;;;;4.07;2.37;;;23.40;78.90;;;;;;10979745;32;20030;-74
2023/06/16 03:18:41;;;;;;;6.10;2.58;;;23.30;78.90;;;;;;10979505;32;20336;-73
2023/06/16 03:24:44;;;;;;;4.10;2.80;;;23.30;79.10;;;;;;10979544;32;20022;-73
2023/06/16 03:30:46;;;;;;;4.22;2.75;;;23.30;79.10;;;;;;10961534;32;20051;-74
2023/06/16 03:36:49;;;;;;;4.45;3.28;;;23.30;79.10;;;;;;10978907;32;20027;-73
2023/06/16 03:42:52;;;;;;;4.12;2.70;;;23.30;79.00;;;;;;10965840;32;20349;-74
2023/06/16 03:48:55;;;;;;;4.05;2.45;;;23.20;79.10;;;;;;10965288;32;20081;-73
2023/06/16 03:54:57;;;;;;;5.57;3.33;;;23.00;79.30;;;;;;10975554;32;20050;-74
2023/06/16 04:00:59;;;;;;;4.45;2.47;;;23.00;79.30;;;;;;10961279;32;20065;-73
2023/06/16 04:07:05;;;;;;;3.70;2.47;;;22.90;79.30;;;;;;10978803;32;20027;-73
2023/06/16 04:13:07;;;;;;;3.87;2.53;;;22.90;79.20;;;;;;10979677;32;20080;-73
2023/06/16 04:19:11;;;;;;;4.65;2.95;;;22.90;79.30;;;;;;10985918;32;20045;-73
2023/06/16 04:25:13;;;;;;;5.22;2.70;;;23.00;79.40;;;;;;10985365;32;20191;-73
2023/06/16 04:31:16;;;;;;;4.18;2.95;;;23.00;79.70;;;;;;10985560;32;20022;-73
2023/06/16 04:37:19;;;;;;;3.42;2.37;;;23.10;79.90;;;;;;10985049;32;20023;-73
2023/06/16 04:43:22;;;;;;;9.48;4.53;;;23.10;79.60;;;;;;10984666;32;20014;-73
2023/06/16 04:49:25;;;;;;;10.82;4.00;;;23.10;79.80;;;;;;10971483;32;20064;-74
2023/06/16 04:55:27;;;;;;;7.37;3.80;;;23.10;79.60;;;;;;10984330;32;20061;-73
2023/06/16 05:01:29;;;;;;;5.97;3.03;;;23.00;79.50;;;;;;10984424;32;20049;-73
2023/06/16 05:07:31;;;;;;;4.40;2.80;;;22.90;79.60;;;;;;10984068;32;20045;-73
2023/06/16 05:13:33;;;;;;;5.28;3.53;;;22.90;79.70;;;;;;10983954;32;20030;-73
2023/06/16 05:19:47;;;;;;;5.78;4.15;;;22.90;79.30;;;;;;10983641;32;20022;-73
2023/06/16 05:25:50;;;;;;;6.30;4.47;;;23.00;79.60;;;;;;10982686;32;20053;-73
2023/06/16 05:31:53;;;;;;;6.68;3.78;;;23.20;79.60;;;;;;10982808;32;20042;-73
2023/06/16 05:37:55;;;;;;;5.65;3.72;;;23.30;79.50;;;;;;10979124;32;20034;-73
2023/06/16 05:43:58;;;;;;;4.57;3.05;;;23.50;79.40;;;;;;10982643;32;20084;-73
2023/06/16 05:50:00;;;;;;;5.53;3.85;;;23.60;79.50;;;;;;10982549;32;20023;-73
2023/06/16 05:56:03;;;;;;;3.53;1.58;;;23.70;78.80;;;;;;10980521;32;20026;-73
2023/06/16 06:02:13;;;;;;;9.00;4.37;;;23.60;77.90;;;;;;10976974;32;20035;-73
2023/06/16 06:08:22;;;;;;;6.60;4.03;;;23.60;77.60;;;;;;10965322;32;20065;-73
2023/06/16 06:14:25;;;;;;;5.85;3.78;;;23.70;77.60;;;;;;10972895;32;20550;-73
2023/06/16 06:20:27;;;;;;;7.20;4.15;;;23.80;77.30;;;;;;10940827;32;20058;-73
2023/06/16 06:26:30;;;;;;;5.45;3.45;;;24.00;77.00;;;;;;10940552;32;20338;-74
2023/06/16 06:32:32;;;;;;;5.70;3.12;;;24.10;76.80;;;;;;10940070;32;20015;-74
2023/06/16 06:38:34;;;;;;;4.47;3.15;;;24.30;76.80;;;;;;10926716;32;20061;-73
2023/06/16 06:44:36;;;;;;;2.55;1.80;;;24.40;77.10;;;;;;10940202;32;20045;-73
2023/06/16 06:50:41;;;;;;;2.30;1.75;;;24.60;77.70;;;;;;10939392;32;20023;-73
2023/06/16 06:56:43;;;;;;;4.37;2.33;;;24.80;77.40;;;;;;10942742;32;20042;-73
2023/06/16 07:02:46;;;;;;;2.78;1.85;;;24.80;78.10;;;;;;10942929;32;20389;-73
2023/06/16 07:08:48;;;;;;;3.35;1.98;;;24.90;78.00;;;;;;10923957;32;20054;-73
2023/06/16 07:14:50;;;;;;;4.07;2.00;;;25.20;77.70;;;;;;10943282;32;20023;-73
2023/06/16 07:20:52;;;;;;;3.58;1.87;;;25.20;77.80;;;;;;10943189;32;20015;-73
2023/06/16 07:26:54;;;;;;;2.83;1.87;;;25.30;77.30;;;;;;10956343;27;20026;-73
2023/06/16 07:32:57;;;;;;;8.80;1.75;;;25.20;77.00;;;;;;11003460;32;20410;-73
2023/06/16 07:38:59;;;;;;;1.92;1.27;;;25.30;77.20;;;;;;11005195;32;20057;-74
2023/06/16 07:45:01;;;;;;;3.70;1.77;;;25.40;76.20;;;;;;11015218;32;20388;-73
2023/06/16 07:51:03;;;;;;;4.35;2.35;;;25.60;75.20;;;;;;11023710;32;20434;-73
2023/06/16 07:57:23;;;;;;;3.20;2.00;;;25.60;74.00;;;;;;11023270;32;20056;-74
2023/06/16 08:03:25;;;;;;;2.75;1.75;;;25.60;74.30;;;;;;11021305;32;20018;-73
2023/06/16 08:09:27;;;;;;;4.78;2.25;;;25.60;74.90;;;;;;11022649;32;20019;-73
2023/06/16 08:15:29;;;;;;;5.95;3.00;;;25.80;74.80;;;;;;11022147;32;20018;-73
2023/06/16 08:21:31;;;;;;;3.55;2.37;;;25.90;73.90;;;;;;11007797;32;20053;-73
2023/06/16 08:27:33;;;;;;;3.22;2.33;;;26.00;73.40;;;;;;11009573;32;20037;-73
2023/06/16 08:33:35;;;;;;;2.87;2.22;;;26.00;73.00;;;;;;11022428;32;20044;-73
2023/06/16 08:39:37;;;;;;;5.07;2.17;;;25.80;71.70;;;;;;11022496;32;20072;-73
2023/06/16 08:45:39;;;;;;;4.87;3.00;;;25.60;71.70;;;;;;11023120;32;20034;-73
2023/06/16 08:51:50;;;;;;;2.62;2.12;;;25.60;71.30;;;;;;11023903;32;20045;-73
2023/06/16 08:57:55;;;;;;;3.78;2.50;;;25.80;71.50;;;;;;11022742;32;20045;-73
2023/06/16 09:04:15;;;;;;;5.28;2.70;;;26.10;70.30;;;;;;11023760;32;20014;-73
2023/06/16 09:10:18;;;;;;;2.25;1.58;;;26.30;70.80;;;;;;11008879;32;20060;-73
2023/06/16 09:16:22;;;;;;;3.92;2.70;;;26.40;70.20;;;;;;11006726;32;20064;-73
2023/06/16 09:22:39;;;;;;;3.78;2.25;;;26.60;69.20;;;;;;11019971;32;20438;-73
2023/06/16 09:28:43;;;;;;;4.03;2.17;;;26.80;68.10;;;;;;10939564;32;20054;-72
2023/06/16 09:34:46;;;;;;;3.17;2.10;;;26.80;67.50;;;;;;10828625;33;20020;-73
2023/06/16 09:41:23;;;;;;;5.60;3.60;;;27.10;66.30;;;;;;10827630;33;20039;-74
2023/06/16 09:47:29;;;;;;;4.95;3.05;;;27.30;64.70;;;;;;10867147;32;20028;-73
2023/06/16 09:53:31;;;;;;;4.72;2.87;;;27.30;65.30;;;;;;10864129;32;20019;-74
2023/06/16 09:59:33;;;;;;;5.68;2.53;;;27.30;64.90;;;;;;10862855;32;20035;-72
2023/06/16 10:05:36;;;;;;;3.22;1.95;;;27.40;64.60;;;;;;10866004;32;20042;-73
2023/06/16 10:11:39;;;;;;;4.47;2.70;;;27.70;63.90;;;;;;10865299;32;20329;-73
2023/06/16 10:17:42;;;;;;;3.50;2.60;;;27.70;62.50;;;;;;10864689;32;20046;-73
2023/06/16 10:23:44;;;;;;;5.05;3.35;;;27.80;62.70;;;;;;10830404;32;20420;-74
2023/06/16 10:29:48;;;;;;;4.65;3.05;;;27.80;60.90;;;;;;10877047;32;20190;-73
2023/06/16 10:35:51;;;;;;;5.05;3.15;;;27.80;59.90;;;;;;10997785;32;20039;-74
2023/06/16 10:41:59;;;;;;;10.63;3.05;;;27.80;58.30;;;;;;10992607;32;20053;-73
2023/06/16 10:48:11;;;;;;;3.00;1.98;;;27.80;58.40;;;;;;10998219;32;20053;-73
2023/06/16 10:54:36;;;;;;;3.90;2.45;;;28.10;57.80;;;;;;11018634;32;20045;-75
2023/06/16 11:00:43;;;;;;;2.08;1.80;;;28.40;57.20;;;;;;11018277;32;20019;-73
2023/06/16 11:07:03;;;;;;;3.75;2.83;;;28.60;56.40;;;;;;11017659;32;20018;-73
2023/06/16 11:13:16;;;;;;;3.95;3.12;;;28.90;56.10;;;;;;11017813;32;20033;-73
2023/06/16 11:19:19;;;;;;;4.15;2.50;;;29.20;55.40;;;;;;11017753;32;20018;-73
2023/06/16 11:25:21;;;;;;;5.87;3.37;;;29.40;55.70;;;;;;11016833;32;20096;-72
2023/06/16 11:31:23;;;;;;;3.83;2.85;;;29.60;53.80;;;;;;11017492;32;20037;-73
2023/06/16 11:37:52;;;;;;;6.20;2.92;;;29.50;54.70;;;;;;11017559;32;20026;-74
2023/06/16 11:43:55;;;;;;;5.22;2.65;;;29.80;54.20;;;;;;10998399;32;20426;-73
2023/06/16 11:49:57;;;;;;;3.83;2.58;;;30.10;54.00;;;;;;11017342;32;20072;-72
2023/06/16 11:56:17;;;;;;;4.62;2.70;;;30.30;53.10;;;;;;11017309;32;20033;-73
2023/06/16 12:02:20;;;;;;;4.55;2.65;;;30.30;52.70;;;;;;11017209;32;20046;-73
2023/06/16 12:08:45;;;;;;;3.55;2.37;;;30.50;52.00;;;;;;11016468;32;20022;-73
2023/06/16 12:14:47;;;;;;;4.28;2.60;;;30.60;51.70;;;;;;10990277;32;20436;-73
2023/06/16 12:21:11;;;;;;;3.65;2.97;;;30.60;51.80;;;;;;11003121;32;20412;-74
2023/06/16 12:27:25;;;;;;;3.40;2.70;;;30.30;50.70;;;;;;11011001;32;20065;-72
2023/06/16 12:33:27;;;;;;;8.93;3.37;;;30.00;50.50;;;;;;11016892;32;20038;-73
2023/06/16 12:39:30;;;;;;;6.45;2.78;;;29.40;50.30;;;;;;10957856;32;20400;-72
2023/06/16 12:45:32;;;;;;;7.97;3.67;;;29.30;50.90;;;;;;11023307;32;20022;-73
2023/06/16 12:51:35;;;;;;;4.07;3.05;;;29.00;50.50;;;;;;11018158;32;20033;-73
2023/06/16 12:57:37;;;;;;;4.70;2.83;;;28.80;51.10;;;;;;11009759;32;20077;-73
2023/06/16 13:03:41;;;;;;;7.03;4.00;;;28.90;50.80;;;;;;11006020;32;20034;-72
2023/06/16 13:09:43;;;;;;;5.93;3.95;;;29.10;50.90;;;;;;11019154;32;20041;-73
2023/06/16 13:15:45;;;;;;;5.82;3.10;;;29.30;53.00;;;;;;11018177;32;20036;-73
2023/06/16 13:21:50;;;;;;;5.32;3.30;;;29.00;52.90;;;;;;11018509;32;20436;-72
2023/06/16 13:27:52;;;;;;;11.88;2.85;;;29.00;52.80;;;;;;11004577;32;20022;-73
2023/06/16 13:33:55;;;;;;;8.07;3.40;;;29.10;52.10;;;;;;11017956;32;20018;-72
2023/06/16 13:39:57;;;;;;;6.85;3.28;;;29.40;51.30;;;;;;11018289;32;20061;-73
2023/06/16 13:52:20;;;;;;;3.95;2.28;;;29.40;51.60;;;;;;11018889;32;20332;-73
2023/06/16 13:58:23;;;;;;;3.50;2.62;;;29.40;51.70;;;;;;11016202;32;20041;-73
2023/06/16 14:04:25;;;;;;;10.95;3.80;;;29.40;50.80;;;;;;11006763;32;20041;-74
2023/06/16 14:10:28;;;;;;;6.47;3.08;;;29.30;50.00;;;;;;11006506;32;20038;-74
2023/06/16 14:16:30;;;;;;;4.40;2.87;;;29.30;48.70;;;;;;10989801;32;20317;-72
2023/06/16 14:22:32;;;;;;;5.60;3.37;;;29.30;50.00;;;;;;11016582;32;20042;-75
2023/06/16 14:28:34;;;;;;;4.40;2.80;;;29.50;50.10;;;;;;11019452;32;20018;-73
2023/06/16 14:34:36;;;;;;;7.00;3.70;;;29.60;49.00;;;;;;11005638;32;20027;-73
2023/06/16 14:40:39;;;;;;;5.65;2.70;;;29.70;48.90;;;;;;10992139;32;20034;-73
2023/06/16 14:46:41;;;;;;;7.30;3.55;;;29.60;49.60;;;;;;10988314;32;20052;-73
2023/06/16 14:52:43;;;;;;;3.55;2.10;;;29.70;49.10;;;;;;11014789;32;20025;-73
2023/06/16 14:58:45;;;;;;;4.85;2.65;;;29.70;50.90;;;;;;11017855;32;20014;-73
2023/06/16 15:04:47;;;;;;;4.47;3.00;;;29.60;49.30;;;;;;11001120;32;20054;-74
2023/06/16 15:10:49;;;;;;;5.85;3.65;;;29.60;50.70;;;;;;11015939;32;20014;-73
2023/06/16 15:16:51;;;;;;;4.25;3.12;;;29.60;49.70;;;;;;11017593;32;20339;-73
2023/06/16 15:22:54;;;;;;;3.15;2.33;;;29.60;50.10;;;;;;11015024;32;20022;-74
2023/06/16 15:28:56;;;;;;;4.97;3.35;;;29.70;50.50;;;;;;10555903;26;12096540;-75
2023/06/16 15:34:58;;;;;;;4.30;2.62;;;29.80;49.70;;;;;;10864138;32;20438;-73
2023/06/16 15:41:01;;;;;;;12.00;3.35;;;29.80;49.30;;;;;;10862923;32;20031;-73
2023/06/16 15:47:03;;;;;;;4.53;2.50;;;29.90;50.80;;;;;;10863177;32;20027;-72
2023/06/16 15:53:05;;;;;;;4.53;2.37;;;29.90;50.50;;;;;;10886114;32;20027;-73
2023/06/16 15:59:08;;;;;;;4.00;2.20;;;30.00;50.00;;;;;;10938998;32;20341;-72
2023/06/16 16:05:10;;;;;;;4.05;2.45;;;30.20;51.60;;;;;;10940748;32;20041;-72
2023/06/16 16:11:12;;;;;;;3.78;2.37;;;30.20;51.60;;;;;;10922369;32;20039;-72
2023/06/16 16:17:17;;;;;;;4.22;2.45;;;30.30;50.90;;;;;;10926500;32;20310;-73
2023/06/16 16:23:20;;;;;;;6.43;2.55;;;30.20;50.80;;;;;;10948407;32;20019;-73
2023/06/16 16:29:27;;;;;;;3.90;2.80;;;29.90;53.00;;;;;;10947948;32;20026;-74
2023/06/16 16:35:29;;;;;;;4.47;2.80;;;29.70;56.70;;;;;;10933996;32;20024;-74
2023/06/16 16:41:31;;;;;;;4.90;2.20;;;29.40;59.00;;;;;;10947118;32;20047;-73
2023/06/16 16:47:33;;;;;;;7.50;2.25;;;29.20;58.40;;;;;;10946673;32;20073;-73
2023/06/16 16:53:37;;;;;;;3.67;2.35;;;29.10;58.00;;;;;;10942907;32;20027;-73
2023/06/16 16:59:40;;;;;;;6.28;1.92;;;29.10;58.00;;;;;;10947091;32;20015;-73
2023/06/16 17:05:42;;;;;;;3.45;2.08;;;29.10;57.30;;;;;;10929290;32;20384;-73
2023/06/16 17:11:44;;;;;;;2.97;2.40;;;29.00;56.90;;;;;;10942618;32;20042;-72
2023/06/16 17:17:46;;;;;;;4.75;3.40;;;28.90;56.70;;;;;;10942239;32;20057;-73
2023/06/16 17:23:48;;;;;;;5.25;2.90;;;28.80;58.10;;;;;;10945049;32;20443;-73
2023/06/16 17:29:50;;;;;;;4.00;3.03;;;28.70;57.40;;;;;;10928970;32;20100;-73
2023/06/16 17:35:53;;;;;;;4.50;2.25;;;28.60;58.90;;;;;;10945130;32;20357;-73
2023/06/16 17:41:55;;;;;;;3.83;2.47;;;28.40;59.50;;;;;;10937525;32;20042;-73
2023/06/16 17:47:58;;;;;;;4.87;2.97;;;28.30;60.30;;;;;;10944111;32;20027;-73
2023/06/16 17:54:00;;;;;;;4.28;3.00;;;28.30;61.30;;;;;;10943916;32;20023;-73
2023/06/16 18:00:05;;;;;;;3.20;2.28;;;28.20;63.20;;;;;;10943317;32;20031;-73
2023/06/16 18:06:13;;;;;;;4.25;2.70;;;28.00;63.00;;;;;;10923955;32;20010;-74
2023/06/16 18:12:15;;;;;;;3.95;2.10;;;28.00;63.70;;;;;;10940894;32;20061;-73
2023/06/16 18:18:18;;;;;;;5.05;3.37;;;27.90;64.60;;;;;;10927280;32;20037;-71
2023/06/16 18:24:20;;;;;;;4.25;2.62;;;27.80;66.50;;;;;;10944147;32;20357;-74
2023/06/16 18:30:22;;;;;;;4.00;2.55;;;27.80;66.10;;;;;;10942310;32;20014;-73
2023/06/16 18:36:24;;;;;;;4.70;2.87;;;27.80;66.50;;;;;;10942732;32;20018;-74
2023/06/16 18:42:28;;;;;;;4.00;2.83;;;27.70;67.20;;;;;;10940468;32;20402;-74
2023/06/16 18:48:30;;;;;;;6.90;4.28;;;27.70;68.00;;;;;;10939260;32;20046;-73
2023/06/16 18:54:32;;;;;;;5.95;3.10;;;27.70;68.30;;;;;;10940012;32;20019;-73
2023/06/16 19:00:34;;;;;;;3.40;2.60;;;27.70;68.80;;;;;;10942914;32;20018;-74
2023/06/16 19:06:37;;;;;;;5.90;3.53;;;27.60;69.80;;;;;;10942712;32;20011;-72
2023/06/16 19:12:39;;;;;;;4.87;2.90;;;27.40;70.10;;;;;;10912426;32;20066;-73
2023/06/16 19:18:43;;;;;;;5.18;3.50;;;27.20;71.50;;;;;;10935419;32;20033;-71
2023/06/16 19:24:45;;;;;;;4.75;2.97;;;27.00;71.60;;;;;;10942126;32;20057;-73
2023/06/16 19:30:47;;;;;;;6.57;3.75;;;26.80;71.30;;;;;;10941838;32;20061;-74
2023/06/16 19:36:50;;;;;;;5.40;3.70;;;26.80;71.90;;;;;;10941922;32;20069;-74
2023/06/16 19:42:52;;;;;;;5.47;4.07;;;26.70;72.60;;;;;;10942523;32;20377;-73
2023/06/16 19:48:54;;;;;;;4.12;2.30;;;26.70;71.90;;;;;;10935893;32;20022;-74
2023/06/16 19:54:56;;;;;;;6.20;3.15;;;26.50;71.70;;;;;;10949327;32;20042;-73
2023/06/16 20:00:58;;;;;;;5.70;3.72;;;26.50;71.00;;;;;;10949124;32;20054;-74
2023/06/16 20:07:02;;;;;;;5.47;2.42;;;26.30;71.00;;;;;;10948800;32;20011;-73
2023/06/16 20:13:06;;;;;;;4.60;3.25;;;26.30;71.20;;;;;;10932260;32;20045;-74
2023/06/16 20:19:09;;;;;;;8.07;3.62;;;26.20;71.20;;;;;;10948375;32;20045;-72
2023/06/16 20:25:11;;;;;;;4.40;2.53;;;26.20;71.70;;;;;;10948318;32;20042;-74
2023/06/16 20:31:19;;;;;;;3.37;1.95;;;26.10;71.80;;;;;;10934481;32;20397;-73
2023/06/16 20:37:23;;;;;;;3.53;1.85;;;26.10;72.60;;;;;;10945893;32;20396;-74
2023/06/16 20:43:26;;;;;;;7.53;3.62;;;26.10;72.80;;;;;;10947530;32;20023;-72
2023/06/16 20:49:28;;;;;;;6.80;2.10;;;26.10;72.60;;;;;;10934111;32;20059;-75
2023/06/16 20:55:32;;;;;;;11.75;3.92;;;25.90;71.90;;;;;;10933129;32;20034;-74
2023/06/16 21:01:39;;;;;;;7.90;2.72;;;25.80;72.40;;;;;;10947084;32;20423;-73
2023/06/16 21:07:44;;;;;;;6.35;2.45;;;25.60;72.50;;;;;;10943796;32;20014;-73
2023/06/16 21:13:47;;;;;;;4.25;2.42;;;25.50;73.20;;;;;;10943329;32;20019;-74
2023/06/16 21:19:49;;;;;;;4.37;1.75;;;25.60;73.40;;;;;;10946335;32;20069;-75
2023/06/16 21:25:51;;;;;;;13.82;2.95;;;25.60;74.00;;;;;;10942650;32;20051;-74
2023/06/16 21:31:54;;;;;;;5.00;2.47;;;25.30;74.70;;;;;;10942846;32;20041;-75
2023/06/16 21:38:01;;;;;;;3.87;2.08;;;25.20;76.40;;;;;;10945604;32;20019;-74
2023/06/16 21:44:04;;;;;;;7.12;2.20;;;25.30;76.60;;;;;;10945187;32;20038;-74
2023/06/16 21:50:07;;;;;;;9.93;3.12;;;25.30;76.20;;;;;;10944843;32;20019;-74
2023/06/16 21:56:09;;;;;;;8.85;3.00;;;25.30;76.00;;;;;;10941652;32;20027;-74
2023/06/16 22:02:12;;;;;;;8.90;4.03;;;25.30;75.80;;;;;;10944842;32;20427;-74
2023/06/16 22:08:14;;;;;;;2.70;1.45;;;25.30;75.80;;;;;;10943293;32;20011;-74
2023/06/16 22:14:16;;;;;;;7.78;2.80;;;25.30;76.00;;;;;;10943124;32;20307;-74
2023/06/16 22:20:18;;;;;;;3.53;1.87;;;25.20;76.50;;;;;;10942136;32;20073;-74
2023/06/16 22:26:21;;;;;;;4.97;2.15;;;25.00;76.60;;;;;;10943981;32;20061;-74
2023/06/16 22:32:23;;;;;;;2.28;1.67;;;25.00;76.60;;;;;;10942308;32;20045;-74
2023/06/16 22:38:25;;;;;;;5.05;2.12;;;24.90;76.40;;;;;;10943629;32;20019;-74
2023/06/16 22:44:28;;;;;;;9.90;2.08;;;24.80;76.40;;;;;;10941322;32;20042;-73
2023/06/16 22:50:31;;;;;;;4.82;1.95;;;24.70;76.60;;;;;;10943284;32;20045;-74
2023/06/16 22:56:33;;;;;;;4.72;1.85;;;24.70;76.50;;;;;;10939337;32;20023;-73
2023/06/16 23:02:35;;;;;;;4.22;2.45;;;24.70;76.50;;;;;;10924854;32;20031;-74
2023/06/16 23:08:37;;;;;;;3.95;2.10;;;24.60;76.50;;;;;;10942659;32;20012;-74
2023/06/16 23:14:39;;;;;;;3.72;1.90;;;24.60;76.20;;;;;;10928820;32;20058;-73
2023/06/16 23:20:41;;;;;;;5.70;2.00;;;24.60;76.40;;;;;;10928502;32;20045;-74
2023/06/16 23:26:47;;;;;;;2.87;1.77;;;24.40;76.60;;;;;;10956195;27;20053;-73
2023/06/16 23:32:49;;;;;;;2.75;1.70;;;24.40;76.40;;;;;;10975514;32;20443;-73
2023/06/16 23:38:51;;;;;;;2.75;1.50;;;24.20;76.50;;;;;;10979591;32;20426;-74
2023/06/16 23:44:53;;;;;;;7.80;2.75;;;24.10;77.00;;;;;;10979462;32;20019;-74
2023/06/16 23:50:55;;;;;;;5.70;2.22;;;24.20;77.60;;;;;;10979260;32;20015;-74
2023/06/16 23:56:57;;;;;;;10.80;2.45;;;24.20;77.20;;;;;;10979162;32;20022;-73
